Time;durP1;ratioP1;P1;durP2;ratioP2;P2;SDS_P1;SDS_P2;PMS_P1;PMS_P2;Temp;Humidity;BMP_temperature;BMP_pressure;BME280_temperature;BME280_humidity;BME280_pressure;Samples;Min_cycle;Max_cycle;Signal;HPM_P1;HPM_P2
2024/01/15 00:05:06;;;;;;;7.30;4.25;;;-0.40;99.90;;;;;;5033056;28;20041;-67
2024/01/15 00:07:32;;;;;;;8.18;4.03;;;-0.40;99.90;;;;;;5044644;28;20105;-67
2024/01/15 00:09:57;;;;;;;8.50;4.50;;;-0.40;99.90;;;;;;5042192;28;20102;-66
2024/01/15 00:12:23;;;;;;;8.60;4.85;;;-0.40;99.90;;;;;;5046387;28;20089;-66
2024/01/15 00:14:49;;;;;;;8.18;4.65;;;-0.40;99.90;;;;;;5044116;28;20761;-66
2024/01/15 00:17:15;;;;;;;6.47;4.00;;;-0.40;99.90;;;;;;5039183;28;20113;-66
2024/01/15 00:19:41;;;;;;;6.38;3.58;;;-0.40;99.90;;;;;;5025779;28;20033;-69
2024/01/15 00:22:06;;;;;;;8.55;4.90;;;-0.40;99.90;;;;;;5026891;28;20045;-65
2024/01/15 00:24:32;;;;;;;6.13;3.45;;;-0.40;99.90;;;;;;5025676;28;20097;-63
2024/01/15 00:26:58;;;;;;;6.53;4.00;;;-0.40;99.90;;;;;;5029855;28;20554;-62
2024/01/15 00:29:23;;;;;;;5.18;3.60;;;-0.40;99.90;;;;;;5025033;28;20056;-62
2024/01/15 00:31:49;;;;;;;6.50;3.17;;;-0.40;99.90;;;;;;5030986;28;20037;-63
2024/01/15 00:34:14;;;;;;;5.47;3.20;;;-0.40;99.90;;;;;;5026229;28;20107;-65
2024/01/15 00:36:40;;;;;;;6.07;3.42;;;-0.40;99.90;;;;;;5026158;28;20069;-64
2024/01/15 00:39:05;;;;;;;6.28;3.25;;;-0.30;99.90;;;;;;5026643;28;20048;-64
2024/01/15 00:41:31;;;;;;;5.95;3.47;;;-0.40;99.90;;;;;;5029422;28;20064;-66
2024/01/15 00:43:58;;;;;;;10.15;4.45;;;-0.40;99.90;;;;;;5023126;28;20095;-64
2024/01/15 00:46:23;;;;;;;7.95;3.80;;;-0.50;99.90;;;;;;5028042;28;20037;-64
2024/01/15 00:48:49;;;;;;;8.68;4.70;;;-0.50;99.90;;;;;;5028157;28;20044;-64
2024/01/15 00:51:15;;;;;;;7.72;4.53;;;-0.50;99.90;;;;;;5027463;28;20041;-64
2024/01/15 00:53:40;;;;;;;8.20;4.32;;;-0.50;99.90;;;;;;5026358;28;20033;-64
2024/01/15 00:56:06;;;;;;;9.30;5.25;;;-0.50;99.90;;;;;;5032501;28;20124;-65
2024/01/15 00:58:32;;;;;;;8.52;5.20;;;-0.50;99.90;;;;;;5028541;28;20144;-63
2024/01/15 01:00:57;;;;;;;8.93;5.40;;;-0.50;99.90;;;;;;5029766;28;20065;-64
2024/01/15 01:03:23;;;;;;;9.77;5.90;;;-0.50;99.90;;;;;;5026034;28;20050;-66
2024/01/15 01:05:49;;;;;;;10.95;5.97;;;-0.60;99.90;;;;;;5031377;28;20041;-64
2024/01/15 01:08:16;;;;;;;9.27;6.13;;;-0.50;99.90;;;;;;5025763;28;20100;-64
2024/01/15 01:10:44;;;;;;;8.50;5.10;;;-0.50;99.90;;;;;;5029244;28;20037;-64
2024/01/15 01:13:10;;;;;;;11.52;6.15;;;-0.50;99.90;;;;;;5029062;28;20395;-66
2024/01/15 01:15:36;;;;;;;10.90;6.07;;;-0.50;99.90;;;;;;5028322;28;20036;-64
2024/01/15 01:18:02;;;;;;;10.40;5.43;;;-0.50;99.90;;;;;;5030831;28;20059;-64
2024/01/15 01:20:28;;;;;;;9.88;5.65;;;-0.50;99.90;;;;;;5027252;28;20136;-64
2024/01/15 01:22:53;;;;;;;10.68;6.07;;;-0.40;99.90;;;;;;5030786;28;20033;-65
2024/01/15 01:25:21;;;;;;;10.88;5.93;;;-0.40;99.90;;;;;;5026785;28;20113;-65
2024/01/15 01:27:47;;;;;;;9.50;5.60;;;-0.40;99.90;;;;;;5031893;28;20068;-64
2024/01/15 01:30:13;;;;;;;10.68;6.22;;;-0.40;99.90;;;;;;5026151;28;20077;-64
2024/01/15 01:32:38;;;;;;;10.40;5.20;;;-0.50;99.90;;;;;;5024157;28;20448;-65
2024/01/15 01:35:04;;;;;;;11.13;5.97;;;-0.50;99.90;;;;;;5025272;28;20064;-67
2024/01/15 01:37:30;;;;;;;10.23;5.63;;;-0.50;99.90;;;;;;5029346;28;20052;-64
2024/01/15 01:39:55;;;;;;;12.38;5.45;;;-0.50;99.90;;;;;;5026254;28;20034;-65
2024/01/15 01:42:21;;;;;;;10.07;5.47;;;-0.50;99.90;;;;;;5029246;28;20045;-65
2024/01/15 01:44:46;;;;;;;10.75;5.65;;;-0.40;99.90;;;;;;5026968;28;20072;-66
2024/01/15 01:47:12;;;;;;;17.00;6.55;;;-0.40;99.90;;;;;;5028026;28;20065;-65
2024/01/15 01:49:38;;;;;;;9.13;4.80;;;-0.40;99.90;;;;;;5019719;28;20076;-64
2024/01/15 01:52:07;;;;;;;13.35;5.75;;;-0.40;99.90;;;;;;5026981;28;20069;-65
2024/01/15 01:54:33;;;;;;;13.68;5.57;;;-0.40;99.90;;;;;;5028097;28;20037;-64
2024/01/15 01:57:01;;;;;;;17.10;5.90;;;-0.40;99.90;;;;;;5034120;28;20576;-64
2024/01/15 01:59:28;;;;;;;11.25;5.72;;;-0.40;99.90;;;;;;5025594;28;20053;-65
2024/01/15 02:01:58;;;;;;;10.25;5.68;;;-0.40;99.90;;;;;;5031016;28;20442;-65
2024/01/15 02:04:24;;;;;;;11.93;6.25;;;-0.40;99.90;;;;;;5026370;28;20512;-64
2024/01/15 02:06:51;;;;;;;13.80;6.45;;;-0.40;99.90;;;;;;5028920;28;20040;-64
2024/01/15 02:09:17;;;;;;;15.65;6.60;;;-0.50;99.90;;;;;;5018817;28;20128;-64
2024/01/15 02:11:43;;;;;;;15.63;6.75;;;-0.50;99.90;;;;;;5029317;28;20556;-64
2024/01/15 02:14:09;;;;;;;16.05;7.35;;;-0.50;99.90;;;;;;5024150;28;20061;-65
2024/01/15 02:16:36;;;;;;;16.48;6.72;;;-0.50;99.90;;;;;;5024747;28;20569;-66
2024/01/15 02:19:01;;;;;;;17.70;7.75;;;-0.40;99.90;;;;;;5029704;28;20049;-64
2024/01/15 02:21:28;;;;;;;16.33;6.90;;;-0.40;99.90;;;;;;5026389;28;20071;-64
2024/01/15 02:23:54;;;;;;;17.25;7.38;;;-0.50;99.90;;;;;;5030306;28;20033;-66
2024/01/15 02:26:20;;;;;;;20.45;8.07;;;-0.50;99.90;;;;;;5025839;28;20030;-65
2024/01/15 02:28:46;;;;;;;15.35;7.45;;;-0.50;99.90;;;;;;5027994;28;20044;-65
2024/01/15 02:31:12;;;;;;;17.08;6.90;;;-0.50;99.90;;;;;;5038640;28;20444;-64
2024/01/15 02:33:37;;;;;;;16.02;6.78;;;-0.50;99.90;;;;;;5022806;28;20037;-65
2024/01/15 02:36:03;;;;;;;14.55;5.88;;;-0.50;99.90;;;;;;5037000;28;20122;-65
2024/01/15 02:38:29;;;;;;;16.20;7.03;;;-0.60;99.90;;;;;;5024804;28;20077;-65
2024/01/15 02:40:55;;;;;;;12.68;7.05;;;-0.60;99.90;;;;;;5028886;28;20048;-65
2024/01/15 02:43:20;;;;;;;13.23;6.95;;;-0.50;99.90;;;;;;5020331;28;20041;-65
2024/01/15 02:45:49;;;;;;;14.45;6.55;;;-0.50;99.90;;;;;;5031998;28;20036;-66
2024/01/15 02:48:15;;;;;;;15.93;7.20;;;-0.50;99.90;;;;;;5027756;28;20560;-65
2024/01/15 02:50:40;;;;;;;13.00;6.55;;;-0.60;99.90;;;;;;5024568;28;20025;-64
2024/01/15 02:53:06;;;;;;;14.10;6.70;;;-0.50;99.90;;;;;;5023825;28;20064;-65
2024/01/15 02:55:32;;;;;;;19.48;7.07;;;-0.60;99.90;;;;;;5028250;28;20496;-67
2024/01/15 02:57:57;;;;;;;18.98;7.00;;;-0.60;99.90;;;;;;5040569;28;20654;-65
2024/01/15 03:00:24;;;;;;;16.85;6.72;;;-0.60;99.90;;;;;;5023560;28;20039;-63
2024/01/15 03:02:50;;;;;;;15.57;7.15;;;-0.60;99.90;;;;;;5028288;28;20068;-66
2024/01/15 03:05:16;;;;;;;15.02;6.88;;;-0.50;99.90;;;;;;5023485;28;20041;-65
2024/01/15 03:07:42;;;;;;;22.88;7.35;;;-0.60;99.90;;;;;;5028126;28;20038;-65
2024/01/15 03:10:11;;;;;;;21.83;6.55;;;-0.60;99.90;;;;;;5024827;28;20120;-63
2024/01/15 03:12:37;;;;;;;17.48;6.25;;;-0.60;99.90;;;;;;5027282;28;20087;-66
2024/01/15 03:15:03;;;;;;;16.85;6.78;;;-0.60;99.90;;;;;;5018669;28;20116;-65
2024/01/15 03:17:28;;;;;;;20.80;6.47;;;-0.60;99.90;;;;;;5031956;28;20053;-64
2024/01/15 03:19:54;;;;;;;13.80;5.70;;;-0.60;99.90;;;;;;5024393;28;20490;-66
2024/01/15 03:22:20;;;;;;;20.45;6.80;;;-0.50;99.90;;;;;;5026619;28;20038;-63
2024/01/15 03:24:45;;;;;;;15.77;6.72;;;-0.50;99.90;;;;;;5024011;28;20390;-63
2024/01/15 03:27:11;;;;;;;18.38;6.50;;;-0.50;99.90;;;;;;5020711;28;20481;-63
2024/01/15 03:29:36;;;;;;;14.85;6.20;;;-0.50;99.90;;;;;;5022408;28;20390;-64
2024/01/15 03:32:02;;;;;;;15.35;6.38;;;-0.50;99.90;;;;;;5027170;28;20105;-65
2024/01/15 03:34:28;;;;;;;16.58;5.90;;;-0.50;99.90;;;;;;5026168;28;20045;-65
2024/01/15 03:36:54;;;;;;;23.83;6.88;;;-0.50;99.90;;;;;;5027647;28;20044;-64
2024/01/15 03:39:19;;;;;;;20.48;6.65;;;-0.50;99.90;;;;;;5027073;28;20045;-63
2024/01/15 03:41:45;;;;;;;18.30;6.82;;;-0.50;99.90;;;;;;5030073;28;20033;-63
2024/01/15 03:44:10;;;;;;;25.33;6.38;;;-0.50;99.90;;;;;;5030811;28;20112;-64
2024/01/15 03:46:36;;;;;;;16.83;5.38;;;-0.50;99.90;;;;;;5024295;28;20163;-64
2024/01/15 03:49:02;;;;;;;19.67;5.75;;;-0.50;99.90;;;;;;5026042;28;20148;-64
2024/01/15 03:51:27;;;;;;;18.45;6.80;;;-0.50;99.90;;;;;;5027396;28;20044;-64
2024/01/15 03:53:53;;;;;;;16.15;6.68;;;-0.50;99.90;;;;;;5027505;28;20040;-64
2024/01/15 03:56:18;;;;;;;22.38;6.85;;;-0.50;99.90;;;;;;5027699;28;20045;-63
2024/01/15 03:58:44;;;;;;;21.42;6.50;;;-0.50;99.90;;;;;;5024111;28;20047;-64
2024/01/15 04:01:10;;;;;;;24.45;7.13;;;-0.50;99.90;;;;;;5029601;28;20037;-64
2024/01/15 04:03:36;;;;;;;24.85;6.18;;;-0.50;99.90;;;;;;5026876;28;20493;-64
2024/01/15 04:06:02;;;;;;;18.70;6.35;;;-0.50;99.90;;;;;;5030279;28;20040;-63
2024/01/15 04:08:29;;;;;;;19.20;5.97;;;-0.50;99.90;;;;;;5023517;28;20410;-64
2024/01/15 04:10:55;;;;;;;24.85;6.50;;;-0.50;99.90;;;;;;5024713;28;20045;-66
2024/01/15 04:13:21;;;;;;;18.27;6.00;;;-0.50;99.90;;;;;;5030465;28;20097;-63
2024/01/15 04:15:46;;;;;;;15.20;5.40;;;-0.50;99.90;;;;;;5034056;28;20041;-65
2024/01/15 04:18:12;;;;;;;20.90;6.38;;;-0.50;99.90;;;;;;5018519;28;20554;-64
2024/01/15 04:20:38;;;;;;;18.17;5.53;;;-0.40;99.90;;;;;;5033828;28;20493;-64
2024/01/15 04:23:04;;;;;;;20.02;6.88;;;-0.40;99.90;;;;;;5028010;28;20037;-63
2024/01/15 04:25:30;;;;;;;16.60;5.60;;;-0.40;99.90;;;;;;5030488;28;20072;-64
2024/01/15 04:27:56;;;;;;;23.40;7.28;;;-0.40;99.90;;;;;;5031789;28;20053;-65
2024/01/15 04:30:21;;;;;;;15.20;5.53;;;-0.40;99.90;;;;;;5028877;28;20416;-66
2024/01/15 04:32:47;;;;;;;18.48;6.20;;;-0.40;99.90;;;;;;5033017;28;20061;-64
2024/01/15 04:35:13;;;;;;;18.75;5.60;;;-0.40;99.90;;;;;;5022925;28;20030;-64
2024/01/15 04:37:39;;;;;;;22.90;5.30;;;-0.40;99.90;;;;;;5027775;28;20070;-65
2024/01/15 04:40:06;;;;;;;25.15;5.45;;;-0.40;99.90;;;;;;5023249;28;20140;-64
2024/01/15 04:42:31;;;;;;;17.38;4.70;;;-0.40;99.90;;;;;;5029926;28;20485;-65
2024/01/15 04:44:57;;;;;;;19.42;5.03;;;-0.40;99.90;;;;;;5023132;28;20064;-65
2024/01/15 04:47:23;;;;;;;16.77;4.85;;;-0.40;99.90;;;;;;5029398;28;20049;-64
2024/01/15 04:49:49;;;;;;;17.13;5.50;;;-0.40;99.90;;;;;;5024215;28;20041;-63
2024/01/15 04:52:14;;;;;;;13.65;5.22;;;-0.40;99.90;;;;;;5032524;28;20037;-63
2024/01/15 04:54:40;;;;;;;14.10;5.32;;;-0.40;99.90;;;;;;5028935;28;20045;-65
2024/01/15 04:57:06;;;;;;;19.80;5.90;;;-0.40;99.90;;;;;;5022382;28;20048;-64
2024/01/15 04:59:31;;;;;;;18.77;5.47;;;-0.30;99.90;;;;;;5028287;28;20124;-64
2024/01/15 05:01:57;;;;;;;17.95;6.22;;;-0.30;99.90;;;;;;5028747;28;20044;-64
2024/01/15 05:04:24;;;;;;;15.65;5.18;;;-0.30;99.90;;;;;;5025359;28;20472;-63
2024/01/15 05:06:50;;;;;;;17.40;5.53;;;-0.40;99.90;;;;;;5030282;28;20048;-63
2024/01/15 05:09:17;;;;;;;16.90;6.20;;;-0.40;99.90;;;;;;5024971;28;20418;-65
2024/01/15 05:11:43;;;;;;;20.23;6.07;;;-0.40;99.90;;;;;;5025710;28;20053;-63
2024/01/15 05:14:08;;;;;;;20.17;6.30;;;-0.40;99.90;;;;;;5025389;28;20044;-64
2024/01/15 05:16:34;;;;;;;22.17;5.47;;;-0.40;99.90;;;;;;5033456;28;20421;-64
2024/01/15 05:19:00;;;;;;;13.85;5.28;;;-0.40;99.90;;;;;;5025133;28;20072;-64
2024/01/15 05:21:25;;;;;;;11.50;4.97;;;-0.40;99.90;;;;;;5025658;28;20133;-64
2024/01/15 05:23:51;;;;;;;14.98;6.70;;;-0.40;99.90;;;;;;5024434;28;20445;-64
2024/01/15 05:26:16;;;;;;;18.13;5.55;;;-0.40;99.90;;;;;;5030711;28;20038;-65
2024/01/15 05:28:42;;;;;;;13.88;4.90;;;-0.40;99.90;;;;;;5016991;28;20034;-65
2024/01/15 05:31:08;;;;;;;20.85;5.25;;;-0.30;99.90;;;;;;5031622;28;20614;-64
2024/01/15 05:33:34;;;;;;;17.33;5.07;;;-0.30;99.90;;;;;;5020735;28;20064;-64
2024/01/15 05:36:00;;;;;;;16.00;4.97;;;-0.30;99.90;;;;;;5024382;28;20122;-65
2024/01/15 05:38:26;;;;;;;18.35;5.03;;;-0.30;99.90;;;;;;5025420;28;20042;-64
2024/01/15 05:40:51;;;;;;;17.77;5.53;;;-0.40;99.90;;;;;;5031602;28;20433;-63
2024/01/15 05:43:17;;;;;;;33.72;6.95;;;-0.40;99.90;;;;;;5025597;28;20048;-64
2024/01/15 05:45:44;;;;;;;17.48;5.07;;;-0.40;99.90;;;;;;5029487;28;20043;-65
2024/01/15 05:48:10;;;;;;;13.38;5.53;;;-0.40;99.90;;;;;;5026250;28;20049;-64
2024/01/15 05:50:35;;;;;;;12.77;4.72;;;-0.30;99.90;;;;;;5026694;28;20606;-64
2024/01/15 05:53:02;;;;;;;19.92;6.07;;;-0.30;99.90;;;;;;5026859;28;20048;-64
2024/01/15 05:55:28;;;;;;;15.43;5.05;;;-0.40;99.90;;;;;;5028251;28;20119;-63
2024/01/15 05:57:53;;;;;;;15.48;4.68;;;-0.30;99.90;;;;;;5026355;28;20116;-63
2024/01/15 06:00:19;;;;;;;16.48;4.95;;;-0.30;99.90;;;;;;5024866;28;20033;-64
2024/01/15 06:02:44;;;;;;;19.35;5.53;;;-0.30;99.90;;;;;;5029139;28;20604;-64
2024/01/15 06:05:10;;;;;;;13.20;5.03;;;-0.30;99.90;;;;;;5024653;28;20045;-64
2024/01/15 06:07:36;;;;;;;15.10;5.28;;;-0.30;99.90;;;;;;5029294;28;20037;-63
2024/01/15 06:10:02;;;;;;;12.07;4.65;;;-0.30;99.90;;;;;;5022673;28;20053;-64
2024/01/15 06:12:28;;;;;;;16.10;6.18;;;-0.30;99.90;;;;;;5023206;28;20052;-64
2024/01/15 06:14:53;;;;;;;19.73;5.53;;;-0.30;99.90;;;;;;5023614;28;20132;-63
2024/01/15 06:17:19;;;;;;;17.60;5.65;;;-0.30;99.90;;;;;;5028894;28;20059;-65
2024/01/15 06:19:45;;;;;;;17.13;5.63;;;-0.30;99.90;;;;;;5024483;28;20130;-64
2024/01/15 06:22:10;;;;;;;16.42;5.22;;;-0.20;99.90;;;;;;5030508;28;20049;-63
2024/01/15 06:24:36;;;;;;;17.60;5.13;;;-0.30;99.90;;;;;;5026580;28;20538;-64
2024/01/15 06:27:01;;;;;;;15.00;5.00;;;-0.30;99.90;;;;;;5025230;28;20413;-63
2024/01/15 06:29:28;;;;;;;13.57;4.35;;;-0.20;99.90;;;;;;5024839;28;20041;-64
2024/01/15 06:31:54;;;;;;;17.05;5.10;;;-0.20;99.90;;;;;;5030206;28;20497;-63
2024/01/15 06:34:19;;;;;;;15.73;5.07;;;-0.30;99.90;;;;;;5026965;28;20048;-63
2024/01/15 06:36:45;;;;;;;25.05;6.13;;;-0.30;99.90;;;;;;5029210;28;20033;-64
2024/01/15 06:39:11;;;;;;;15.55;5.20;;;-0.30;99.90;;;;;;5025279;28;20516;-65
2024/01/15 06:41:43;;;;;;;14.50;4.78;;;-0.30;99.90;;;;;;5027492;28;20045;-64
2024/01/15 06:44:15;;;;;;;11.38;5.05;;;-0.30;99.90;;;;;;5021471;28;20441;-65
2024/01/15 06:46:44;;;;;;;19.20;4.85;;;-0.30;99.90;;;;;;5025520;28;20075;-63
2024/01/15 06:51:57;;;;;;;8.05;3.60;;;-0.30;99.90;;;;;;5254006;23;20050;-62
2024/01/15 06:54:23;;;;;;;17.27;4.95;;;-0.30;99.90;;;;;;4971256;28;20055;-65
2024/01/15 06:56:50;;;;;;;11.77;4.43;;;-0.20;99.90;;;;;;4959662;28;20053;-62
2024/01/15 06:59:16;;;;;;;8.23;4.18;;;-0.20;99.90;;;;;;4951746;28;20035;-63
2024/01/15 07:01:41;;;;;;;17.85;4.57;;;-0.20;99.90;;;;;;4946584;28;20513;-63
2024/01/15 07:04:08;;;;;;;10.90;4.43;;;-0.20;99.90;;;;;;4947808;28;20431;-63
2024/01/15 07:06:33;;;;;;;10.63;4.60;;;-0.20;99.90;;;;;;4951539;28;20059;-63
2024/01/15 07:08:59;;;;;;;17.42;5.47;;;-0.30;99.90;;;;;;4949287;28;20047;-64
2024/01/15 07:11:24;;;;;;;9.40;4.30;;;-0.20;99.90;;;;;;4946784;28;20051;-64
2024/01/15 07:13:50;;;;;;;12.50;4.78;;;-0.20;99.90;;;;;;4950001;28;20047;-66
2024/01/15 07:16:15;;;;;;;13.07;5.15;;;-0.20;99.90;;;;;;4947134;28;20035;-63
2024/01/15 07:18:41;;;;;;;11.68;4.82;;;-0.30;99.90;;;;;;4951353;28;20514;-63
2024/01/15 07:21:07;;;;;;;16.98;5.03;;;-0.20;99.90;;;;;;4944847;28;20118;-65
2024/01/15 07:23:32;;;;;;;12.50;4.78;;;-0.20;99.90;;;;;;4946697;28;20046;-64
2024/01/15 07:25:58;;;;;;;11.50;4.25;;;-0.10;99.90;;;;;;4946635;28;20671;-63
2024/01/15 07:28:24;;;;;;;12.10;5.13;;;-0.10;99.90;;;;;;4949994;28;20047;-62
2024/01/15 07:30:49;;;;;;;8.70;4.15;;;-0.10;99.90;;;;;;4950455;28;20109;-64
2024/01/15 07:33:15;;;;;;;13.93;4.22;;;-0.10;99.90;;;;;;4952231;28;20039;-66
2024/01/15 07:35:41;;;;;;;13.10;4.07;;;-0.10;99.90;;;;;;4951704;28;20414;-64
2024/01/15 07:38:07;;;;;;;11.43;4.47;;;-0.10;99.90;;;;;;4953509;28;20122;-63
2024/01/15 07:40:37;;;;;;;9.73;4.43;;;-0.10;99.90;;;;;;4951857;28;20385;-57
2024/01/15 07:43:02;;;;;;;11.15;4.10;;;-0.10;99.90;;;;;;4952780;28;20130;-63
2024/01/15 07:45:28;;;;;;;11.95;4.15;;;-0.10;99.90;;;;;;4950970;28;20693;-64
2024/01/15 07:47:54;;;;;;;16.65;4.50;;;-0.10;99.90;;;;;;4952941;28;20549;-63
2024/01/15 07:50:19;;;;;;;10.68;3.65;;;0.00;99.90;;;;;;4950943;28;20057;-63
2024/01/15 07:52:45;;;;;;;7.88;3.47;;;0.00;99.90;;;;;;4951992;28;20135;-61
2024/01/15 07:55:11;;;;;;;12.80;3.85;;;-0.10;99.90;;;;;;4950947;28;20083;-63
2024/01/15 07:57:36;;;;;;;10.60;3.33;;;-0.10;99.90;;;;;;4954759;28;20134;-64
2024/01/15 08:00:04;;;;;;;8.88;3.83;;;0.00;99.90;;;;;;4952140;28;20541;-65
2024/01/15 08:02:31;;;;;;;6.90;3.75;;;0.00;99.90;;;;;;4945757;28;20693;-63
2024/01/15 08:04:56;;;;;;;7.78;3.85;;;-0.10;99.90;;;;;;4951525;28;20130;-65
2024/01/15 08:07:41;;;;;;;8.48;3.15;;;-0.10;99.90;;;;;;4950972;28;20530;-64
2024/01/15 08:10:10;;;;;;;7.70;3.05;;;0.00;99.90;;;;;;4943403;28;20063;-65
2024/01/15 08:12:35;;;;;;;6.40;3.40;;;0.00;99.90;;;;;;4952061;28;20551;-65
2024/01/15 08:15:01;;;;;;;7.00;3.60;;;0.00;99.90;;;;;;4950794;28;20054;-66
2024/01/15 08:17:28;;;;;;;7.30;3.15;;;-0.10;99.90;;;;;;4952674;28;20050;-65
2024/01/15 08:19:54;;;;;;;9.98;3.47;;;-0.10;99.90;;;;;;4954742;28;20130;-66
2024/01/15 08:22:20;;;;;;;6.72;2.97;;;-0.10;99.90;;;;;;4949233;28;20495;-64
2024/01/15 08:24:45;;;;;;;7.38;2.55;;;-0.10;99.90;;;;;;4952919;28;20514;-64
2024/01/15 08:27:11;;;;;;;6.70;2.97;;;-0.10;99.90;;;;;;4950820;28;20050;-64
2024/01/15 08:29:37;;;;;;;8.90;3.88;;;-0.10;99.90;;;;;;4951413;28;20122;-63
2024/01/15 08:32:02;;;;;;;9.82;2.90;;;-0.20;99.90;;;;;;4951630;28;20491;-63
2024/01/15 08:34:28;;;;;;;8.88;3.60;;;-0.20;99.90;;;;;;4951922;28;20043;-65
2024/01/15 08:36:54;;;;;;;11.27;2.90;;;-0.10;99.90;;;;;;4950138;28;20097;-62
2024/01/15 08:39:19;;;;;;;8.40;3.60;;;-0.10;99.90;;;;;;4951146;28;20571;-63
2024/01/15 08:41:46;;;;;;;4.93;2.72;;;-0.10;99.90;;;;;;4952186;28;20035;-63
2024/01/15 08:44:12;;;;;;;8.75;2.75;;;0.00;99.90;;;;;;4947790;28;20566;-63
2024/01/15 08:46:38;;;;;;;6.07;2.80;;;0.10;99.90;;;;;;4951535;28;20047;-64
2024/01/15 08:49:04;;;;;;;7.30;3.00;;;0.20;99.90;;;;;;4961755;28;20458;-65
2024/01/15 08:51:29;;;;;;;6.45;2.70;;;0.30;99.90;;;;;;4942169;28;20126;-64
2024/01/15 08:53:59;;;;;;;7.50;2.90;;;0.30;99.90;;;;;;4941764;28;20043;-64
2024/01/15 08:56:24;;;;;;;5.60;2.60;;;0.20;99.90;;;;;;4949684;28;20047;-65
2024/01/15 08:58:50;;;;;;;7.65;3.15;;;0.30;99.90;;;;;;4945237;28;20106;-64
2024/01/15 09:01:16;;;;;;;7.65;3.05;;;0.30;99.90;;;;;;4940887;28;20106;-66
2024/01/15 09:03:42;;;;;;;6.07;2.92;;;0.30;99.90;;;;;;4945516;28;20038;-64
2024/01/15 09:06:09;;;;;;;5.57;2.45;;;0.40;99.90;;;;;;4987758;23;20054;-81
2024/01/15 09:08:35;;;;;;;4.30;2.22;;;0.50;99.90;;;;;;4990699;28;20051;-80
2024/01/15 09:11:04;;;;;;;9.07;2.60;;;0.40;99.90;;;;;;4985260;28;20046;-80
2024/01/15 09:13:30;;;;;;;5.25;2.20;;;0.40;99.90;;;;;;4985699;28;20039;-78
2024/01/15 09:15:56;;;;;;;7.72;2.42;;;0.50;99.90;;;;;;4982373;28;20117;-79
2024/01/15 09:18:22;;;;;;;5.43;2.47;;;0.50;99.90;;;;;;4967724;28;20043;-80
2024/01/15 09:20:48;;;;;;;4.80;2.50;;;0.50;99.90;;;;;;4971501;28;20035;-79
2024/01/15 09:23:14;;;;;;;3.92;2.25;;;0.50;99.90;;;;;;4964723;28;20595;-79
2024/01/15 09:25:40;;;;;;;4.70;2.47;;;0.60;99.90;;;;;;4965063;28;20113;-81
2024/01/15 09:28:06;;;;;;;4.80;2.03;;;0.50;99.90;;;;;;4965065;28;20078;-81
2024/01/15 09:30:32;;;;;;;4.50;2.65;;;0.60;99.90;;;;;;4974559;28;20389;-81
2024/01/15 09:32:59;;;;;;;4.25;1.73;;;0.70;99.90;;;;;;4966868;28;20548;-80
2024/01/15 09:35:24;;;;;;;13.57;2.45;;;0.70;99.90;;;;;;4969599;28;20047;-82
2024/01/15 09:37:50;;;;;;;4.05;1.98;;;0.70;99.90;;;;;;4978859;28;20047;-79
2024/01/15 09:40:17;;;;;;;3.42;1.60;;;0.80;99.90;;;;;;4978678;28;20030;-80
2024/01/15 09:42:44;;;;;;;4.13;2.15;;;0.80;99.90;;;;;;4967459;28;20045;-80
2024/01/15 09:45:10;;;;;;;7.20;1.98;;;0.90;99.90;;;;;;4964022;28;20440;-80
2024/01/15 09:47:37;;;;;;;4.50;2.30;;;0.90;99.90;;;;;;4963902;28;20050;-79
2024/01/15 09:50:04;;;;;;;2.53;1.80;;;0.90;99.90;;;;;;4965714;28;20096;-79
2024/01/15 09:52:31;;;;;;;4.72;1.85;;;0.80;99.90;;;;;;4986351;28;20039;-81
2024/01/15 09:55:01;;;;;;;5.00;1.70;;;1.00;99.90;;;;;;4967460;28;20035;-82
2024/01/15 09:57:27;;;;;;;3.53;1.60;;;1.10;99.90;;;;;;4972532;28;20060;-79
2024/01/15 09:59:54;;;;;;;3.30;1.90;;;1.20;99.90;;;;;;4968680;28;20099;-80
2024/01/15 10:02:20;;;;;;;2.45;1.60;;;1.10;99.90;;;;;;4971033;28;20035;-80
2024/01/15 10:04:46;;;;;;;2.90;1.58;;;1.10;99.90;;;;;;4975030;28;20045;-81
2024/01/15 10:07:19;;;;;;;3.17;1.80;;;1.00;99.90;;;;;;4969510;28;20078;-81
2024/01/15 10:09:45;;;;;;;2.13;1.58;;;1.10;99.90;;;;;;4966891;28;20050;-83
2024/01/15 10:12:12;;;;;;;4.07;1.67;;;1.10;99.90;;;;;;4969932;28;20086;-81
2024/01/15 10:14:40;;;;;;;3.60;1.95;;;1.10;99.90;;;;;;4978997;28;20168;-81
2024/01/15 10:17:17;;;;;;;2.88;1.50;;;1.00;99.90;;;;;;4972284;28;20057;-77
2024/01/15 10:19:46;;;;;;;3.72;2.03;;;1.00;99.90;;;;;;4980076;28;20038;-82
2024/01/15 10:22:17;;;;;;;2.95;1.85;;;1.00;99.90;;;;;;4977288;28;20404;-79
2024/01/15 10:24:56;;;;;;;3.03;1.60;;;0.80;99.90;;;;;;4978554;28;20030;-82
2024/01/15 10:27:22;;;;;;;2.30;1.52;;;0.70;99.90;;;;;;4970732;28;20575;-80
2024/01/15 10:29:47;;;;;;;1.90;1.42;;;0.70;99.90;;;;;;4983471;28;20043;-80
2024/01/15 10:32:13;;;;;;;2.42;1.60;;;0.70;99.90;;;;;;4967312;28;20055;-81
2024/01/15 10:34:44;;;;;;;4.30;1.40;;;0.60;99.90;;;;;;4974260;28;20526;-80
2024/01/15 10:37:10;;;;;;;3.35;1.60;;;0.60;99.90;;;;;;4962229;28;20239;-80
2024/01/15 10:39:36;;;;;;;2.17;1.27;;;0.60;99.90;;;;;;4972380;28;20707;-81
2024/01/15 10:42:03;;;;;;;2.75;1.48;;;0.70;99.90;;;;;;4961702;28;20043;-82
2024/01/15 10:44:29;;;;;;;2.10;1.00;;;0.70;99.90;;;;;;4986339;28;20065;-80
2024/01/15 10:46:56;;;;;;;2.45;1.20;;;0.70;99.90;;;;;;4984974;28;20046;-81
2024/01/15 10:49:26;;;;;;;2.58;1.00;;;0.70;99.90;;;;;;4981509;28;20110;-81
2024/01/15 10:51:55;;;;;;;1.52;1.00;;;0.70;99.90;;;;;;4978140;28;20117;-81
2024/01/15 10:54:26;;;;;;;1.35;1.00;;;0.70;99.90;;;;;;4983891;28;20133;-83
2024/01/15 10:57:00;;;;;;;1.23;0.90;;;0.70;99.90;;;;;;4973544;28;20283;-81
2024/01/15 10:59:26;;;;;;;1.00;0.65;;;0.60;99.90;;;;;;4979096;28;20049;-82
2024/01/15 11:01:56;;;;;;;1.50;0.77;;;0.70;99.90;;;;;;4970357;28;20036;-82
2024/01/15 11:04:23;;;;;;;0.70;0.70;;;0.80;99.90;;;;;;4971074;28;20043;-81
2024/01/15 11:06:53;;;;;;;1.27;0.70;;;0.80;99.90;;;;;;4989966;28;20316;-79
2024/01/15 11:09:19;;;;;;;1.02;0.68;;;0.80;99.90;;;;;;4969586;28;20063;-83
2024/01/15 11:12:06;;;;;;;2.47;1.00;;;0.80;99.90;;;;;;4975323;28;20035;-81
2024/01/15 11:14:45;;;;;;;3.28;0.85;;;0.80;99.90;;;;;;4974346;28;20043;-81
2024/01/15 11:17:12;;;;;;;1.65;1.02;;;0.80;99.90;;;;;;4972190;28;20038;-80
2024/01/15 11:19:46;;;;;;;2.90;1.27;;;0.70;99.90;;;;;;4970226;28;20053;-80
2024/01/15 11:22:30;;;;;;;1.88;0.80;;;0.60;99.90;;;;;;4972290;28;20117;-80
2024/01/15 11:24:57;;;;;;;2.10;1.10;;;0.70;99.90;;;;;;4967597;28;20062;-81
2024/01/15 11:27:51;;;;;;;2.35;1.88;;;0.80;99.90;;;;;;4981180;28;20046;-81
2024/01/15 11:30:19;;;;;;;4.07;1.90;;;0.80;99.90;;;;;;4975694;28;20035;-80
2024/01/15 11:32:46;;;;;;;4.13;1.55;;;0.80;99.90;;;;;;4960423;28;20031;-80
2024/01/15 11:35:14;;;;;;;1.60;0.90;;;0.70;99.90;;;;;;4972568;28;20129;-82
2024/01/15 11:37:56;;;;;;;1.98;1.00;;;0.80;99.90;;;;;;4968714;28;20057;-81
2024/01/15 11:40:33;;;;;;;1.67;0.60;;;0.70;99.90;;;;;;4981647;28;20039;-81
2024/01/15 11:42:59;;;;;;;2.33;0.80;;;0.70;99.90;;;;;;4962496;28;20042;-80
2024/01/15 11:45:26;;;;;;;2.15;1.02;;;0.70;99.90;;;;;;4975042;28;20038;-80
2024/01/15 11:48:13;;;;;;;1.20;0.73;;;0.70;99.90;;;;;;4977445;28;20039;-80
2024/01/15 11:50:49;;;;;;;0.90;0.70;;;0.80;99.90;;;;;;4971423;28;20039;-80
2024/01/15 11:53:34;;;;;;;2.38;1.02;;;0.90;99.90;;;;;;4981369;28;20042;-80
2024/01/15 11:56:03;;;;;;;3.63;1.10;;;0.90;99.90;;;;;;4963371;28;20039;-81
2024/01/15 11:58:29;;;;;;;7.03;1.33;;;0.80;99.90;;;;;;4958754;28;20042;-81
2024/01/15 12:00:56;;;;;;;3.30;0.90;;;0.70;99.90;;;;;;4970662;28;20034;-81
2024/01/15 12:03:22;;;;;;;6.43;1.25;;;0.50;99.90;;;;;;4974359;28;20035;-80
2024/01/15 12:05:51;;;;;;;2.47;1.08;;;0.30;99.90;;;;;;4972155;28;20034;-81
2024/01/15 12:08:27;;;;;;;6.50;1.60;;;0.40;99.90;;;;;;4976542;28;20042;-79
2024/01/15 12:10:54;;;;;;;5.22;1.05;;;0.40;99.90;;;;;;4969792;28;20050;-81
2024/01/15 12:13:20;;;;;;;8.05;1.60;;;0.40;99.90;;;;;;4987876;28;20068;-79
2024/01/15 12:15:48;;;;;;;2.80;0.85;;;0.40;99.90;;;;;;4975458;28;20043;-80
2024/01/15 12:18:16;;;;;;;3.47;0.95;;;0.50;99.90;;;;;;4978185;28;20045;-82
2024/01/15 12:20:44;;;;;;;4.13;0.80;;;0.50;99.90;;;;;;4979598;28;20278;-81
2024/01/15 12:23:11;;;;;;;6.03;0.98;;;0.50;99.90;;;;;;4979849;28;20070;-81
2024/01/15 12:25:37;;;;;;;2.20;1.10;;;0.50;99.90;;;;;;4977544;28;20049;-82
2024/01/15 12:28:05;;;;;;;8.68;1.55;;;0.40;99.90;;;;;;4974946;28;20651;-82
2024/01/15 12:30:32;;;;;;;7.03;1.67;;;0.40;99.90;;;;;;4976338;28;20046;-80
2024/01/15 12:33:00;;;;;;;9.02;1.33;;;0.40;99.90;;;;;;4978093;28;20572;-81
2024/01/15 12:35:27;;;;;;;4.07;1.20;;;0.40;99.90;;;;;;4981290;28;20039;-80
2024/01/15 12:37:54;;;;;;;5.72;1.02;;;0.40;99.90;;;;;;4982336;28;20129;-79
2024/01/15 12:40:23;;;;;;;6.82;1.17;;;0.50;99.90;;;;;;4972685;28;20051;-81
2024/01/15 12:42:50;;;;;;;3.00;1.05;;;0.60;99.90;;;;;;4978678;28;20035;-78
2024/01/15 12:45:17;;;;;;;12.45;1.67;;;0.70;99.90;;;;;;4983372;28;20440;-79
2024/01/15 12:47:43;;;;;;;3.60;0.95;;;0.60;99.90;;;;;;4976859;28;20047;-80
2024/01/15 12:50:10;;;;;;;4.53;1.55;;;0.50;99.90;;;;;;4994636;28;20057;-80